Time,TemperatureF,DewpointF,PressureIn,WindDirection,WindDirectionDegrees,WindSpeedMPH,WindSpeedGustMPH,Humidity,HourlyPrecipIn,Conditions,Clouds,dailyrainin,SoftwareType,DateUTC
2013-07-13 00:15:00,64.0,63.7,29.76,ENE,67,0.0,-999.0,99,-99.99,,,0.00,Acu-Link.com,2013-07-13 05:15:00,
2013-07-13 00:30:00,63.7,63.1,29.75,ENE,67,0.0,-999.0,98,-99.99,,,0.00,Acu-Link.com,2013-07-13 05:30:00,
2013-07-13 00:45:00,63.5,13.5,29.75,ENE,67,0.0,-999.0,14,-99.99,,,0.00,Acu-Link.com,2013-07-13 05:45:00,
2013-07-13 01:00:00,62.6,-13.7,29.75,ENE,67,0.0,-999.0,4,-99.99,,,0.00,Acu-Link.com,2013-07-13 06:00:00,
2013-07-13 01:15:00,61.5,-27.7,29.75,ENE,67,0.0,-999.0,2,-99.99,,,0.00,Acu-Link.com,2013-07-13 06:15:00,
2013-07-13 01:30:00,61.3,16.1,29.75,ENE,67,0.0,-999.0,17,-99.99,,,0.00,Acu-Link.com,2013-07-13 06:30:00,
2013-07-13 01:45:00,61.3,30.4,29.74,ENE,67,0.0,-999.0,31,-99.99,,,0.00,Acu-Link.com,2013-07-13 06:45:00,
2013-07-13 02:01:00,61.0,27.7,29.74,ENE,67,0.0,-999.0,28,-99.99,,,0.00,Acu-Link.com,2013-07-13 07:01:00,
2013-07-13 02:16:00,61.2,27.0,29.74,ENE,67,0.0,-999.0,27,-99.99,,,0.00,Acu-Link.com,2013-07-13 07:16:00,
2013-07-13 02:31:00,61.3,27.0,29.73,ENE,67,0.0,-999.0,27,-99.99,,,0.00,Acu-Link.com,2013-07-13 07:31:00,
2013-07-13 02:46:00,61.2,2.0,29.73,ENE,67,0.0,-999.0,9,-99.99,,,0.00,Acu-Link.com,2013-07-13 07:46:00,
2013-07-13 03:01:00,60.6,25.5,29.73,ENE,67,0.0,-999.0,26,-99.99,,,0.00,Acu-Link.com,2013-07-13 08:01:00,
2013-07-13 03:17:00,60.8,32.3,29.74,ENE,67,0.0,-999.0,34,-99.99,,,0.00,Acu-Link.com,2013-07-13 08:17:00,
2013-07-13 03:32:00,60.4,19.2,29.73,ENE,67,0.0,-999.0,20,-99.99,,,0.00,Acu-Link.com,2013-07-13 08:32:00,
2013-07-13 03:47:00,60.3,21.3,29.74,ENE,67,0.0,-999.0,22,-99.99,,,0.00,Acu-Link.com,2013-07-13 08:47:00,
2013-07-13 04:03:00,59.5,25.5,29.75,ENE,67,0.0,-999.0,27,-99.99,,,0.00,Acu-Link.com,2013-07-13 09:03:00,
2013-07-13 04:18:00,58.6,31.7,29.74,ENE,67,0.0,-999.0,36,-99.99,,,0.00,Acu-Link.com,2013-07-13 09:18:00,
2013-07-13 04:33:00,59.2,37.3,29.74,ENE,67,0.0,-999.0,44,-99.99,,,0.00,Acu-Link.com,2013-07-13 09:33:00,
2013-07-13 04:48:00,58.6,37.3,29.74,ENE,67,0.0,-999.0,45,-99.99,,,0.00,Acu-Link.com,2013-07-13 09:48:00,
2013-07-13 05:03:00,58.3,37.6,29.75,ENE,67,0.0,-999.0,46,-99.99,,,0.00,Acu-Link.com,2013-07-13 10:03:00,
2013-07-13 05:18:00,59.0,39.3,29.76,ENE,67,0.0,-999.0,48,-99.99,,,0.00,Acu-Link.com,2013-07-13 10:18:00,
2013-07-13 05:33:00,58.6,38.4,29.75,ENE,67,0.0,-999.0,47,-99.99,,,0.00,Acu-Link.com,2013-07-13 10:33:00,
2013-07-13 05:48:00,60.1,40.3,29.75,ENE,67,0.0,-999.0,48,-99.99,,,0.00,Acu-Link.com,2013-07-13 10:48:00,
2013-07-13 06:04:00,60.4,39.5,29.76,ENE,67,0.0,-999.0,46,-99.99,,,0.00,Acu-Link.com,2013-07-13 11:04:00,
2013-07-13 06:19:00,59.9,34.2,29.77,ENE,67,0.0,-999.0,38,-99.99,,,0.00,Acu-Link.com,2013-07-13 11:19:00,
2013-07-13 06:34:00,61.0,38.3,29.77,ENE,67,0.0,-999.0,43,-99.99,,,0.00,Acu-Link.com,2013-07-13 11:34:00,
2013-07-13 06:49:00,62.4,0.3,29.77,East,90,0.0,-999.0,8,-99.99,,,0.00,Acu-Link.com,2013-07-13 11:49:00,
2013-07-13 07:04:00,64.2,63.6,29.78,North,0,0.0,-999.0,98,-99.99,,,0.00,Acu-Link.com,2013-07-13 12:04:00,
2013-07-13 07:19:00,68.7,68.4,29.78,NNE,22,0.0,-999.0,99,-99.99,,,0.00,Acu-Link.com,2013-07-13 12:19:00,
2013-07-13 07:34:00,73.0,72.7,29.77,West,270,0.0,-999.0,99,-99.99,,,0.00,Acu-Link.com,2013-07-13 12:34:00,
2013-07-13 07:49:00,75.6,74.4,29.78,NE,45,0.0,-999.0,96,-99.99,,,0.00,Acu-Link.com,2013-07-13 12:49:00,
2013-07-13 08:04:00,77.9,74.7,29.77,NNE,22,1.1,-999.0,90,-99.99,,,0.00,Acu-Link.com,2013-07-13 13:04:00,
2013-07-13 08:20:00,78.1,74.9,29.77,NE,45,0.0,-999.0,90,-99.99,,,0.00,Acu-Link.com,2013-07-13 13:20:00,
2013-07-13 08:35:00,79.0,76.1,29.76,ESE,112,0.0,-999.0,91,-99.99,,,0.00,Acu-Link.com,2013-07-13 13:35:00,
2013-07-13 08:50:00,76.3,75.7,29.76,NNE,22,3.7,-999.0,98,-99.99,,,0.00,Acu-Link.com,2013-07-13 13:50:00,
2013-07-13 09:05:00,77.7,76.8,29.76,ESE,112,0.0,-999.0,97,-99.99,,,0.00,Acu-Link.com,2013-07-13 14:05:00,
2013-07-13 09:20:00,76.5,75.0,29.76,NNE,22,0.0,-999.0,95,-99.99,,,0.00,Acu-Link.com,2013-07-13 14:20:00,
2013-07-13 09:35:00,78.1,75.9,29.76,NNW,337,0.0,-999.0,93,-99.99,,,0.00,Acu-Link.com,2013-07-13 14:35:00,
2013-07-13 09:50:00,79.9,75.3,29.77,ESE,112,0.0,-999.0,86,-99.99,,,0.00,Acu-Link.com,2013-07-13 14:50:00,
2013-07-13 10:05:00,78.8,74.6,29.77,ESE,112,0.0,-999.0,87,-99.99,,,0.00,Acu-Link.com,2013-07-13 15:05:00,
2013-07-13 10:20:00,79.9,76.7,29.77,West,270,0.0,-999.0,90,-99.99,,,0.00,Acu-Link.com,2013-07-13 15:20:00,
2013-07-13 10:36:00,81.3,76.7,29.78,ESE,112,1.7,-999.0,86,-99.99,,,0.00,Acu-Link.com,2013-07-13 15:36:00,
2013-07-13 10:51:00,81.5,76.5,29.78,SSE,157,0.0,-999.0,85,-99.99,,,0.00,Acu-Link.com,2013-07-13 15:51:00,
2013-07-13 11:06:00,83.7,78.0,29.78,ESE,112,0.0,-999.0,83,-99.99,,,0.00,Acu-Link.com,2013-07-13 16:06:00,
2013-07-13 11:21:00,82.9,76.5,29.78,North,0,0.0,-999.0,81,-99.99,,,0.00,Acu-Link.com,2013-07-13 16:21:00,
2013-07-13 11:36:00,84.6,75.8,29.77,ESE,112,6.8,-999.0,75,-99.99,,,0.00,Acu-Link.com,2013-07-13 16:36:00,
2013-07-13 11:51:00,83.5,74.7,29.77,ESE,112,0.0,-999.0,75,-99.99,,,0.00,Acu-Link.com,2013-07-13 16:51:00,
2013-07-13 12:06:00,84.7,74.6,29.77,ENE,67,3.7,-999.0,72,-99.99,,,0.00,Acu-Link.com,2013-07-13 17:06:00,
2013-07-13 12:22:00,85.6,74.2,29.77,ESE,112,5.3,-999.0,69,-99.99,,,0.00,Acu-Link.com,2013-07-13 17:22:00,
2013-07-13 12:37:00,82.9,74.1,29.76,East,90,4.2,-999.0,75,-99.99,,,0.00,Acu-Link.com,2013-07-13 17:37:00,
2013-07-13 12:52:00,85.6,75.1,29.76,ESE,112,6.3,-999.0,71,-99.99,,,0.00,Acu-Link.com,2013-07-13 17:52:00,
2013-07-13 13:07:00,86.5,75.1,29.76,East,90,7.8,-999.0,69,-99.99,,,0.00,Acu-Link.com,2013-07-13 18:07:00,
2013-07-13 13:22:00,83.5,75.1,29.75,North,0,1.1,-999.0,76,-99.99,,,0.00,Acu-Link.com,2013-07-13 18:22:00,
2013-07-13 13:37:00,86.2,76.9,29.75,SE,135,3.7,-999.0,74,-99.99,,,0.00,Acu-Link.com,2013-07-13 18:37:00,
2013-07-13 13:52:00,86.2,74.8,29.75,ESE,112,4.2,-999.0,69,-99.99,,,0.00,Acu-Link.com,2013-07-13 18:52:00,
2013-07-13 14:07:00,84.0,73.6,29.75,NNW,337,1.1,-999.0,71,-99.99,,,0.00,Acu-Link.com,2013-07-13 19:07:00,
2013-07-13 14:22:00,86.7,75.3,29.74,West,270,0.0,-999.0,69,-99.99,,,0.00,Acu-Link.com,2013-07-13 19:22:00,
2013-07-13 14:38:00,86.5,74.2,29.73,NNW,337,1.7,-999.0,67,-99.99,,,0.00,Acu-Link.com,2013-07-13 19:38:00,
2013-07-13 14:53:00,84.4,72.7,29.74,NE,45,0.0,-999.0,68,-99.99,,,0.00,Acu-Link.com,2013-07-13 19:53:00,
2013-07-13 15:08:00,82.4,73.3,29.73,East,90,2.2,-999.0,74,-99.99,,,0.00,Acu-Link.com,2013-07-13 20:08:00,
2013-07-13 15:24:00,83.7,74.1,29.73,ESE,112,5.8,-999.0,73,-99.99,,,0.00,Acu-Link.com,2013-07-13 20:24:00,
2013-07-13 15:39:00,85.5,75.8,29.72,West,270,0.0,-999.0,73,-99.99,,,0.00,Acu-Link.com,2013-07-13 20:39:00,
2013-07-13 15:54:00,86.2,74.4,29.72,ENE,67,0.0,-999.0,68,-99.99,,,0.00,Acu-Link.com,2013-07-13 20:54:00,
2013-07-13 16:09:00,85.3,73.5,29.72,ESE,112,0.0,-999.0,68,-99.99,,,0.00,Acu-Link.com,2013-07-13 21:09:00,
2013-07-13 16:24:00,84.7,75.1,29.73,ESE,112,0.0,-999.0,73,-99.99,,,0.00,Acu-Link.com,2013-07-13 21:24:00,
2013-07-13 16:39:00,82.4,72.9,29.72,ESE,112,0.0,-999.0,73,-99.99,,,0.00,Acu-Link.com,2013-07-13 21:39:00,
2013-07-13 16:54:00,81.9,73.6,29.72,East,90,0.0,-999.0,76,-99.99,,,0.00,Acu-Link.com,2013-07-13 21:54:00,
2013-07-13 17:10:00,85.5,76.2,29.73,ENE,67,0.0,-999.0,74,-99.99,,,0.00,Acu-Link.com,2013-07-13 22:10:00,
2013-07-13 17:25:00,85.1,74.6,29.73,SSE,157,0.0,-999.0,71,-99.99,,,0.00,Acu-Link.com,2013-07-13 22:25:00,
2013-07-13 17:40:00,78.1,77.8,29.72,ESE,112,0.0,-999.0,99,-99.99,,,0.22,Acu-Link.com,2013-07-13 22:40:00,
2013-07-13 17:55:00,75.9,75.6,29.72,ESE,112,0.0,-999.0,99,-99.99,,,0.23,Acu-Link.com,2013-07-13 22:55:00,
2013-07-13 18:10:00,75.0,74.7,29.73,ESE,112,0.0,-999.0,99,-99.99,,,0.23,Acu-Link.com,2013-07-13 23:10:00,
2013-07-13 18:25:00,74.7,74.4,29.73,NE,45,0.0,-999.0,99,-99.99,,,0.23,Acu-Link.com,2013-07-13 23:25:00,
2013-07-13 18:40:00,75.0,74.7,29.73,NE,45,0.0,-999.0,99,-99.99,,,0.23,Acu-Link.com,2013-07-13 23:40:00,
2013-07-13 18:55:00,77.2,76.9,29.73,NE,45,0.0,-999.0,99,-99.99,,,0.23,Acu-Link.com,2013-07-13 23:55:00,
2013-07-13 19:10:00,77.7,75.5,29.73,NE,45,0.0,-999.0,93,-99.99,,,0.23,Acu-Link.com,2013-07-14 00:10:00,
2013-07-13 19:26:00,77.4,75.5,29.73,SE,135,0.0,-999.0,94,-99.99,,,0.23,Acu-Link.com,2013-07-14 00:26:00,
2013-07-13 19:41:00,75.4,74.8,29.73,SE,135,0.0,-999.0,98,-99.99,,,0.23,Acu-Link.com,2013-07-14 00:41:00,
2013-07-13 19:56:00,73.8,73.5,29.74,SE,135,0.0,-999.0,99,-99.99,,,0.23,Acu-Link.com,2013-07-14 00:56:00,
2013-07-13 20:11:00,72.3,72.0,29.74,SE,135,0.0,-999.0,99,-99.99,,,0.23,Acu-Link.com,2013-07-14 01:11:00,
2013-07-13 20:26:00,70.5,70.2,29.74,SE,135,0.0,-999.0,99,-99.99,,,0.23,Acu-Link.com,2013-07-14 01:26:00,
2013-07-13 20:41:00,69.3,69.0,29.74,SE,135,0.0,-999.0,99,-99.99,,,0.23,Acu-Link.com,2013-07-14 01:41:00,
2013-07-13 20:56:00,69.1,68.8,29.74,SE,135,0.0,-999.0,99,-99.99,,,0.23,Acu-Link.com,2013-07-14 01:56:00,
2013-07-13 21:11:00,67.8,67.5,29.75,SE,135,0.0,-999.0,99,-99.99,,,0.23,Acu-Link.com,2013-07-14 02:11:00,
2013-07-13 21:26:00,67.1,66.5,29.76,SE,135,0.0,-999.0,98,-99.99,,,0.23,Acu-Link.com,2013-07-14 02:26:00,
2013-07-13 21:42:00,67.5,1.3,29.76,SE,135,0.0,-999.0,7,-99.99,,,0.23,Acu-Link.com,2013-07-14 02:42:00,
2013-07-13 21:57:00,67.8,18.5,29.75,SE,135,0.0,-999.0,15,-99.99,,,0.23,Acu-Link.com,2013-07-14 02:57:00,
2013-07-13 22:12:00,68.4,20.5,29.77,ESE,112,0.0,-999.0,16,-99.99,,,0.23,Acu-Link.com,2013-07-14 03:12:00,
2013-07-13 22:27:00,68.5,25.8,29.77,ESE,112,0.0,-999.0,20,-99.99,,,0.23,Acu-Link.com,2013-07-14 03:27:00,
2013-07-13 22:42:00,68.9,12.2,29.77,ESE,112,0.0,-999.0,11,-99.99,,,0.23,Acu-Link.com,2013-07-14 03:42:00,
2013-07-13 22:57:00,68.4,1.9,29.77,SE,135,0.0,-999.0,7,-99.99,,,0.23,Acu-Link.com,2013-07-14 03:57:00,
2013-07-13 23:12:00,68.0,18.6,29.77,SE,135,0.0,-999.0,15,-99.99,,,0.23,Acu-Link.com,2013-07-14 04:12:00,
2013-07-13 23:27:00,68.0,30.9,29.77,ESE,112,0.0,-999.0,25,-99.99,,,0.23,Acu-Link.com,2013-07-14 04:27:00,
2013-07-13 23:42:00,67.6,30.5,29.77,ESE,112,0.0,-999.0,25,-99.99,,,0.23,Acu-Link.com,2013-07-14 04:42:00,
2013-07-13 23:58:00,67.8,36.9,29.77,ESE,112,0.0,-999.0,32,-99.99,,,0.23,Acu-Link.com,2013-07-14 04:58:00,